sensor_id;sensor_type;location;lat;lon;timestamp;P1;durP1;ratioP1;P2;durP2;ratioP2
71048;SDS011;58704;53.358;-6.238;2022-11-18T00:01:07;25.27;;;10.13;;
71048;SDS011;58704;53.358;-6.238;2022-11-18T00:03:37;23.15;;;9.32;;
71048;SDS011;58704;53.358;-6.238;2022-11-18T00:06:14;25.20;;;10.37;;
71048;SDS011;58704;53.358;-6.238;2022-11-18T00:09:01;21.27;;;9.18;;
71048;SDS011;58704;53.358;-6.238;2022-11-18T00:11:27;17.97;;;9.07;;
71048;SDS011;58704;53.358;-6.238;2022-11-18T00:14:24;17.93;;;9.03;;
71048;SDS011;58704;53.358;-6.238;2022-11-18T00:16:56;27.27;;;10.98;;
71048;SDS011;58704;53.358;-6.238;2022-11-18T00:19:34;20.65;;;9.93;;
71048;SDS011;58704;53.358;-6.238;2022-11-18T00:22:04;25.83;;;10.65;;
71048;SDS011;58704;53.358;-6.238;2022-11-18T00:24:31;18.13;;;8.05;;
71048;SDS011;58704;53.358;-6.238;2022-11-18T00:27:04;19.53;;;8.97;;
71048;SDS011;58704;53.358;-6.238;2022-11-18T00:29:41;22.73;;;8.02;;
71048;SDS011;58704;53.358;-6.238;2022-11-18T00:32:08;16.55;;;8.63;;
71048;SDS011;58704;53.358;-6.238;2022-11-18T00:34:35;16.30;;;8.35;;
71048;SDS011;58704;53.358;-6.238;2022-11-18T00:37:00;16.23;;;7.53;;
71048;SDS011;58704;53.358;-6.238;2022-11-18T00:39:25;17.60;;;7.67;;
71048;SDS011;58704;53.358;-6.238;2022-11-18T00:41:51;18.33;;;7.63;;
71048;SDS011;58704;53.358;-6.238;2022-11-18T00:44:35;14.07;;;6.83;;
71048;SDS011;58704;53.358;-6.238;2022-11-18T00:47:01;15.07;;;6.28;;
71048;SDS011;58704;53.358;-6.238;2022-11-18T00:49:27;18.60;;;8.68;;
71048;SDS011;58704;53.358;-6.238;2022-11-18T00:51:54;16.10;;;8.17;;
71048;SDS011;58704;53.358;-6.238;2022-11-18T00:54:22;18.70;;;7.85;;
71048;SDS011;58704;53.358;-6.238;2022-11-18T00:56:52;16.73;;;7.35;;
71048;SDS011;58704;53.358;-6.238;2022-11-18T00:59:17;15.47;;;7.20;;
71048;SDS011;58704;53.358;-6.238;2022-11-18T01:01:43;12.30;;;7.17;;
71048;SDS011;58704;53.358;-6.238;2022-11-18T01:04:08;17.20;;;6.93;;
71048;SDS011;58704;53.358;-6.238;2022-11-18T01:06:35;14.75;;;6.90;;
71048;SDS011;58704;53.358;-6.238;2022-11-18T01:09:03;15.77;;;7.07;;
71048;SDS011;58704;53.358;-6.238;2022-11-18T01:11:34;12.93;;;6.80;;
71048;SDS011;58704;53.358;-6.238;2022-11-18T01:14:18;19.27;;;7.30;;
71048;SDS011;58704;53.358;-6.238;2022-11-18T01:16:48;14.80;;;8.00;;
71048;SDS011;58704;53.358;-6.238;2022-11-18T01:19:18;13.02;;;6.32;;
71048;SDS011;58704;53.358;-6.238;2022-11-18T01:22:03;10.75;;;6.85;;
71048;SDS011;58704;53.358;-6.238;2022-11-18T01:24:29;13.70;;;6.97;;
71048;SDS011;58704;53.358;-6.238;2022-11-18T01:27:04;15.13;;;6.97;;
71048;SDS011;58704;53.358;-6.238;2022-11-18T01:29:38;14.90;;;5.97;;
71048;SDS011;58704;53.358;-6.238;2022-11-18T01:32:04;14.03;;;6.30;;
71048;SDS011;58704;53.358;-6.238;2022-11-18T01:34:36;9.75;;;4.93;;
71048;SDS011;58704;53.358;-6.238;2022-11-18T01:37:02;8.05;;;4.70;;
71048;SDS011;58704;53.358;-6.238;2022-11-18T01:39:27;8.63;;;4.93;;
71048;SDS011;58704;53.358;-6.238;2022-11-18T01:41:59;8.90;;;4.63;;
71048;SDS011;58704;53.358;-6.238;2022-11-18T01:50:27;8.47;;;4.40;;
71048;SDS011;58704;53.358;-6.238;2022-11-18T01:52:54;9.30;;;4.60;;
71048;SDS011;58704;53.358;-6.238;2022-11-18T01:55:32;8.75;;;5.10;;
71048;SDS011;58704;53.358;-6.238;2022-11-18T01:58:10;10.35;;;4.82;;
71048;SDS011;58704;53.358;-6.238;2022-11-18T02:00:42;6.77;;;4.33;;
71048;SDS011;58704;53.358;-6.238;2022-11-18T02:03:07;7.57;;;4.50;;
71048;SDS011;58704;53.358;-6.238;2022-11-18T02:05:33;8.75;;;4.32;;
71048;SDS011;58704;53.358;-6.238;2022-11-18T02:08:03;7.85;;;4.60;;
71048;SDS011;58704;53.358;-6.238;2022-11-18T02:10:48;5.93;;;4.10;;
71048;SDS011;58704;53.358;-6.238;2022-11-18T02:13:14;5.97;;;3.80;;
71048;SDS011;58704;53.358;-6.238;2022-11-18T02:21:20;5.90;;;4.25;;
71048;SDS011;58704;53.358;-6.238;2022-11-18T02:32:23;8.07;;;4.25;;
71048;SDS011;58704;53.358;-6.238;2022-11-18T02:35:08;5.43;;;3.55;;
71048;SDS011;58704;53.358;-6.238;2022-11-18T02:37:46;7.05;;;4.15;;
71048;SDS011;58704;53.358;-6.238;2022-11-18T02:40:28;7.73;;;3.97;;
71048;SDS011;58704;53.358;-6.238;2022-11-18T02:43:09;6.05;;;3.80;;
71048;SDS011;58704;53.358;-6.238;2022-11-18T02:45:42;6.80;;;4.20;;
71048;SDS011;58704;53.358;-6.238;2022-11-18T02:48:09;8.77;;;4.68;;
71048;SDS011;58704;53.358;-6.238;2022-11-18T02:50:35;7.78;;;3.90;;
71048;SDS011;58704;53.358;-6.238;2022-11-18T02:53:03;6.10;;;3.73;;
71048;SDS011;58704;53.358;-6.238;2022-11-18T02:55:30;5.00;;;3.83;;
71048;SDS011;58704;53.358;-6.238;2022-11-18T02:57:58;6.82;;;3.28;;
71048;SDS011;58704;53.358;-6.238;2022-11-18T03:00:26;4.28;;;3.05;;
71048;SDS011;58704;53.358;-6.238;2022-11-18T03:02:51;6.10;;;3.10;;
71048;SDS011;58704;53.358;-6.238;2022-11-18T03:05:31;4.33;;;3.33;;
71048;SDS011;58704;53.358;-6.238;2022-11-18T03:08:21;4.68;;;2.75;;
71048;SDS011;58704;53.358;-6.238;2022-11-18T03:10:59;3.22;;;2.72;;
71048;SDS011;58704;53.358;-6.238;2022-11-18T03:13:38;4.47;;;2.57;;
71048;SDS011;58704;53.358;-6.238;2022-11-18T03:16:11;4.55;;;2.90;;
71048;SDS011;58704;53.358;-6.238;2022-11-18T03:18:52;4.25;;;2.55;;
71048;SDS011;58704;53.358;-6.238;2022-11-18T03:22:09;3.67;;;2.75;;
71048;SDS011;58704;53.358;-6.238;2022-11-18T03:30:42;5.68;;;1.88;;
71048;SDS011;58704;53.358;-6.238;2022-11-18T03:33:11;1.90;;;1.63;;
71048;SDS011;58704;53.358;-6.238;2022-11-18T03:35:49;3.25;;;1.42;;
71048;SDS011;58704;53.358;-6.238;2022-11-18T03:38:17;5.20;;;2.30;;
71048;SDS011;58704;53.358;-6.238;2022-11-18T03:40:52;3.45;;;1.42;;
71048;SDS011;58704;53.358;-6.238;2022-11-18T03:43:21;3.35;;;1.48;;
71048;SDS011;58704;53.358;-6.238;2022-11-18T03:45:53;3.73;;;1.70;;
71048;SDS011;58704;53.358;-6.238;2022-11-18T03:48:28;2.33;;;1.52;;
71048;SDS011;58704;53.358;-6.238;2022-11-18T03:51:10;5.43;;;1.55;;
71048;SDS011;58704;53.358;-6.238;2022-11-18T03:53:50;5.32;;;1.55;;
71048;SDS011;58704;53.358;-6.238;2022-11-18T03:56:24;4.35;;;1.30;;
71048;SDS011;58704;53.358;-6.238;2022-11-18T03:59:14;4.20;;;0.80;;
71048;SDS011;58704;53.358;-6.238;2022-11-18T04:02:09;1.85;;;0.82;;
71048;SDS011;58704;53.358;-6.238;2022-11-18T04:04:37;2.05;;;1.00;;
71048;SDS011;58704;53.358;-6.238;2022-11-18T04:09:58;1.95;;;0.82;;
71048;SDS011;58704;53.358;-6.238;2022-11-18T04:15:39;4.10;;;1.08;;
71048;SDS011;58704;53.358;-6.238;2022-11-18T04:18:15;2.95;;;1.02;;
71048;SDS011;58704;53.358;-6.238;2022-11-18T04:21:03;2.63;;;0.90;;
71048;SDS011;58704;53.358;-6.238;2022-11-18T04:23:28;3.47;;;0.83;;
71048;SDS011;58704;53.358;-6.238;2022-11-18T04:25:55;6.00;;;1.40;;
71048;SDS011;58704;53.358;-6.238;2022-11-18T04:28:23;4.33;;;1.43;;
71048;SDS011;58704;53.358;-6.238;2022-11-18T04:30:49;4.35;;;1.08;;
71048;SDS011;58704;53.358;-6.238;2022-11-18T04:33:14;8.00;;;1.45;;
71048;SDS011;58704;53.358;-6.238;2022-11-18T04:35:40;6.30;;;1.40;;
71048;SDS011;58704;53.358;-6.238;2022-11-18T04:38:05;7.47;;;1.37;;
71048;SDS011;58704;53.358;-6.238;2022-11-18T04:40:33;6.72;;;1.10;;
71048;SDS011;58704;53.358;-6.238;2022-11-18T04:43:00;7.27;;;1.10;;
71048;SDS011;58704;53.358;-6.238;2022-11-18T04:45:25;3.60;;;1.10;;
71048;SDS011;58704;53.358;-6.238;2022-11-18T04:47:51;3.88;;;1.30;;
71048;SDS011;58704;53.358;-6.238;2022-11-18T04:50:16;4.70;;;1.10;;
71048;SDS011;58704;53.358;-6.238;2022-11-18T04:52:42;6.63;;;1.60;;
71048;SDS011;58704;53.358;-6.238;2022-11-18T04:55:07;5.22;;;1.30;;
71048;SDS011;58704;53.358;-6.238;2022-11-18T04:57:33;6.10;;;1.10;;
71048;SDS011;58704;53.358;-6.238;2022-11-18T05:00:01;5.87;;;1.27;;
71048;SDS011;58704;53.358;-6.238;2022-11-18T05:02:27;8.48;;;1.23;;
71048;SDS011;58704;53.358;-6.238;2022-11-18T05:04:53;9.00;;;1.30;;
71048;SDS011;58704;53.358;-6.238;2022-11-18T05:07:18;8.87;;;1.60;;
71048;SDS011;58704;53.358;-6.238;2022-11-18T05:09:44;11.23;;;1.67;;
71048;SDS011;58704;53.358;-6.238;2022-11-18T05:12:10;7.40;;;1.50;;
71048;SDS011;58704;53.358;-6.238;2022-11-18T05:14:55;5.28;;;1.17;;
71048;SDS011;58704;53.358;-6.238;2022-11-18T05:17:22;7.57;;;1.20;;
71048;SDS011;58704;53.358;-6.238;2022-11-18T05:19:47;8.27;;;1.33;;
71048;SDS011;58704;53.358;-6.238;2022-11-18T05:22:13;6.43;;;1.10;;
71048;SDS011;58704;53.358;-6.238;2022-11-18T05:24:41;10.87;;;1.70;;
71048;SDS011;58704;53.358;-6.238;2022-11-18T05:27:06;12.20;;;1.83;;
71048;SDS011;58704;53.358;-6.238;2022-11-18T05:29:35;4.47;;;1.30;;
71048;SDS011;58704;53.358;-6.238;2022-11-18T05:32:00;8.40;;;1.30;;
71048;SDS011;58704;53.358;-6.238;2022-11-18T05:34:26;8.67;;;1.50;;
71048;SDS011;58704;53.358;-6.238;2022-11-18T05:36:51;8.30;;;1.20;;
71048;SDS011;58704;53.358;-6.238;2022-11-18T05:39:17;11.38;;;1.65;;
71048;SDS011;58704;53.358;-6.238;2022-11-18T05:41:43;6.63;;;1.30;;
71048;SDS011;58704;53.358;-6.238;2022-11-18T05:44:27;6.88;;;1.17;;
71048;SDS011;58704;53.358;-6.238;2022-11-18T05:46:52;9.80;;;1.87;;
71048;SDS011;58704;53.358;-6.238;2022-11-18T05:49:18;5.90;;;1.48;;
71048;SDS011;58704;53.358;-6.238;2022-11-18T05:51:44;5.60;;;1.50;;
71048;SDS011;58704;53.358;-6.238;2022-11-18T05:54:09;8.63;;;1.60;;
71048;SDS011;58704;53.358;-6.238;2022-11-18T05:56:39;5.85;;;1.50;;
71048;SDS011;58704;53.358;-6.238;2022-11-18T05:59:05;8.05;;;1.70;;
71048;SDS011;58704;53.358;-6.238;2022-11-18T06:01:39;4.77;;;1.63;;
71048;SDS011;58704;53.358;-6.238;2022-11-18T06:04:08;8.38;;;1.67;;
71048;SDS011;58704;53.358;-6.238;2022-11-18T06:06:52;11.73;;;1.60;;
71048;SDS011;58704;53.358;-6.238;2022-11-18T06:09:20;10.38;;;1.38;;
71048;SDS011;58704;53.358;-6.238;2022-11-18T06:11:49;11.65;;;2.30;;
71048;SDS011;58704;53.358;-6.238;2022-11-18T06:14:21;9.77;;;1.50;;
71048;SDS011;58704;53.358;-6.238;2022-11-18T06:16:59;8.00;;;1.20;;
71048;SDS011;58704;53.358;-6.238;2022-11-18T06:19:27;7.85;;;1.35;;
71048;SDS011;58704;53.358;-6.238;2022-11-18T06:21:53;8.57;;;1.60;;
71048;SDS011;58704;53.358;-6.238;2022-11-18T06:24:22;7.83;;;1.40;;
71048;SDS011;58704;53.358;-6.238;2022-11-18T06:26:48;8.68;;;1.67;;
71048;SDS011;58704;53.358;-6.238;2022-11-18T06:29:14;5.43;;;1.63;;
71048;SDS011;58704;53.358;-6.238;2022-11-18T06:31:40;7.78;;;1.30;;
71048;SDS011;58704;53.358;-6.238;2022-11-18T06:34:06;6.93;;;1.37;;
71048;SDS011;58704;53.358;-6.238;2022-11-18T06:36:31;13.50;;;1.42;;
71048;SDS011;58704;53.358;-6.238;2022-11-18T06:39:01;10.17;;;1.33;;
71048;SDS011;58704;53.358;-6.238;2022-11-18T06:41:30;11.70;;;1.50;;
71048;SDS011;58704;53.358;-6.238;2022-11-18T06:43:55;8.23;;;1.27;;
71048;SDS011;58704;53.358;-6.238;2022-11-18T06:46:24;8.52;;;1.10;;
71048;SDS011;58704;53.358;-6.238;2022-11-18T06:49:08;14.85;;;2.05;;
71048;SDS011;58704;53.358;-6.238;2022-11-18T06:51:37;4.03;;;1.20;;
71048;SDS011;58704;53.358;-6.238;2022-11-18T06:54:03;15.23;;;2.28;;
71048;SDS011;58704;53.358;-6.238;2022-11-18T06:56:28;4.50;;;1.23;;
71048;SDS011;58704;53.358;-6.238;2022-11-18T06:58:55;13.52;;;1.75;;
71048;SDS011;58704;53.358;-6.238;2022-11-18T07:01:23;9.80;;;1.50;;
71048;SDS011;58704;53.358;-6.238;2022-11-18T07:03:50;6.47;;;1.15;;
71048;SDS011;58704;53.358;-6.238;2022-11-18T07:06:20;7.82;;;1.55;;
71048;SDS011;58704;53.358;-6.238;2022-11-18T07:08:51;11.20;;;2.00;;
71048;SDS011;58704;53.358;-6.238;2022-11-18T07:11:27;7.75;;;1.75;;
71048;SDS011;58704;53.358;-6.238;2022-11-18T07:13:54;3.93;;;1.40;;
71048;SDS011;58704;53.358;-6.238;2022-11-18T07:16:24;6.95;;;1.40;;
71048;SDS011;58704;53.358;-6.238;2022-11-18T07:18:59;11.02;;;1.83;;
71048;SDS011;58704;53.358;-6.238;2022-11-18T07:21:39;18.60;;;1.92;;
71048;SDS011;58704;53.358;-6.238;2022-11-18T07:24:12;11.70;;;1.90;;
71048;SDS011;58704;53.358;-6.238;2022-11-18T07:26:38;11.45;;;1.73;;
71048;SDS011;58704;53.358;-6.238;2022-11-18T07:29:07;11.82;;;1.98;;
71048;SDS011;58704;53.358;-6.238;2022-11-18T07:31:34;9.13;;;1.60;;
71048;SDS011;58704;53.358;-6.238;2022-11-18T07:34:06;3.90;;;0.90;;
71048;SDS011;58704;53.358;-6.238;2022-11-18T07:36:44;8.40;;;2.10;;
71048;SDS011;58704;53.358;-6.238;2022-11-18T07:52:35;12.27;;;1.52;;
71048;SDS011;58704;53.358;-6.238;2022-11-18T07:55:01;10.57;;;1.70;;
71048;SDS011;58704;53.358;-6.238;2022-11-18T07:57:26;8.73;;;1.30;;
71048;SDS011;58704;53.358;-6.238;2022-11-18T07:59:52;10.40;;;2.40;;
71048;SDS011;58704;53.358;-6.238;2022-11-18T08:02:17;9.37;;;2.07;;
71048;SDS011;58704;53.358;-6.238;2022-11-18T08:04:43;12.77;;;2.20;;
71048;SDS011;58704;53.358;-6.238;2022-11-18T09:29:52;8.20;;;1.80;;
71048;SDS011;58704;53.358;-6.238;2022-11-18T09:32:18;9.85;;;1.75;;
71048;SDS011;58704;53.358;-6.238;2022-11-18T09:34:43;11.00;;;2.00;;
71048;SDS011;58704;53.358;-6.238;2022-11-18T09:37:09;11.00;;;2.08;;
71048;SDS011;58704;53.358;-6.238;2022-11-18T09:39:34;10.40;;;1.53;;
71048;SDS011;58704;53.358;-6.238;2022-11-18T09:47:24;6.97;;;1.63;;
71048;SDS011;58704;53.358;-6.238;2022-11-18T09:49:54;8.88;;;2.10;;
71048;SDS011;58704;53.358;-6.238;2022-11-18T09:54:53;7.43;;;1.98;;
71048;SDS011;58704;53.358;-6.238;2022-11-18T09:57:26;8.88;;;2.05;;
71048;SDS011;58704;53.358;-6.238;2022-11-18T09:59:59;11.73;;;2.20;;
71048;SDS011;58704;53.358;-6.238;2022-11-18T10:02:27;8.93;;;2.03;;
71048;SDS011;58704;53.358;-6.238;2022-11-18T10:05:00;8.63;;;1.92;;
71048;SDS011;58704;53.358;-6.238;2022-11-18T10:07:49;15.35;;;3.65;;
71048;SDS011;58704;53.358;-6.238;2022-11-18T10:14:03;11.33;;;2.20;;
71048;SDS011;58704;53.358;-6.238;2022-11-18T10:19:16;6.93;;;1.60;;
71048;SDS011;58704;53.358;-6.238;2022-11-18T10:22:03;9.25;;;1.80;;
71048;SDS011;58704;53.358;-6.238;2022-11-18T10:24:52;5.07;;;1.90;;
71048;SDS011;58704;53.358;-6.238;2022-11-18T10:27:19;8.20;;;1.80;;
71048;SDS011;58704;53.358;-6.238;2022-11-18T10:29:47;9.15;;;1.75;;
71048;SDS011;58704;53.358;-6.238;2022-11-18T10:32:18;7.35;;;1.70;;
71048;SDS011;58704;53.358;-6.238;2022-11-18T10:34:51;7.67;;;2.30;;
71048;SDS011;58704;53.358;-6.238;2022-11-18T10:37:25;8.73;;;1.60;;
71048;SDS011;58704;53.358;-6.238;2022-11-18T10:39:56;9.48;;;1.80;;
71048;SDS011;58704;53.358;-6.238;2022-11-18T10:42:24;7.60;;;1.83;;
71048;SDS011;58704;53.358;-6.238;2022-11-18T10:47:57;7.93;;;1.60;;
71048;SDS011;58704;53.358;-6.238;2022-11-18T10:50:46;5.93;;;1.85;;
71048;SDS011;58704;53.358;-6.238;2022-11-18T10:56:01;5.43;;;1.70;;
71048;SDS011;58704;53.358;-6.238;2022-11-18T10:58:32;7.32;;;1.50;;
71048;SDS011;58704;53.358;-6.238;2022-11-18T11:01:34;8.47;;;2.17;;
71048;SDS011;58704;53.358;-6.238;2022-11-18T11:06:41;7.63;;;1.75;;
71048;SDS011;58704;53.358;-6.238;2022-11-18T11:12:08;8.10;;;1.95;;
71048;SDS011;58704;53.358;-6.238;2022-11-18T11:17:26;13.95;;;1.85;;
71048;SDS011;58704;53.358;-6.238;2022-11-18T11:19:58;8.40;;;1.95;;
71048;SDS011;58704;53.358;-6.238;2022-11-18T11:22:34;11.50;;;1.67;;
71048;SDS011;58704;53.358;-6.238;2022-11-18T11:25:00;5.88;;;1.30;;
71048;SDS011;58704;53.358;-6.238;2022-11-18T11:27:40;10.73;;;1.90;;
71048;SDS011;58704;53.358;-6.238;2022-11-18T11:38:31;9.20;;;1.90;;
71048;SDS011;58704;53.358;-6.238;2022-11-18T11:41:22;7.80;;;1.40;;
71048;SDS011;58704;53.358;-6.238;2022-11-18T11:50:13;3.92;;;1.25;;
71048;SDS011;58704;53.358;-6.238;2022-11-18T11:52:45;8.67;;;1.23;;
71048;SDS011;58704;53.358;-6.238;2022-11-18T11:55:18;11.82;;;1.40;;
71048;SDS011;58704;53.358;-6.238;2022-11-18T11:58:01;4.97;;;1.13;;
71048;SDS011;58704;53.358;-6.238;2022-11-18T12:00:36;8.15;;;1.40;;
71048;SDS011;58704;53.358;-6.238;2022-11-18T12:06:09;7.40;;;1.50;;
71048;SDS011;58704;53.358;-6.238;2022-11-18T12:08:35;7.00;;;1.38;;
71048;SDS011;58704;53.358;-6.238;2022-11-18T12:13:33;12.98;;;2.20;;
71048;SDS011;58704;53.358;-6.238;2022-11-18T12:16:10;5.82;;;1.67;;
71048;SDS011;58704;53.358;-6.238;2022-11-18T12:26:42;9.82;;;1.52;;
71048;SDS011;58704;53.358;-6.238;2022-11-18T12:29:43;6.65;;;1.73;;
71048;SDS011;58704;53.358;-6.238;2022-11-18T12:48:51;9.68;;;1.88;;
71048;SDS011;58704;53.358;-6.238;2022-11-18T12:53:49;6.47;;;1.70;;
71048;SDS011;58704;53.358;-6.238;2022-11-18T12:58:45;6.93;;;1.27;;
71048;SDS011;58704;53.358;-6.238;2022-11-18T13:01:25;7.53;;;1.75;;
71048;SDS011;58704;53.358;-6.238;2022-11-18T13:04:08;6.75;;;1.67;;
71048;SDS011;58704;53.358;-6.238;2022-11-18T13:06:37;6.57;;;1.45;;
71048;SDS011;58704;53.358;-6.238;2022-11-18T13:09:03;7.00;;;1.83;;
71048;SDS011;58704;53.358;-6.238;2022-11-18T13:11:30;7.93;;;1.42;;
71048;SDS011;58704;53.358;-6.238;2022-11-18T13:14:28;7.07;;;1.60;;
71048;SDS011;58704;53.358;-6.238;2022-11-18T13:20:18;10.43;;;1.88;;
71048;SDS011;58704;53.358;-6.238;2022-11-18T13:22:55;6.27;;;1.30;;
71048;SDS011;58704;53.358;-6.238;2022-11-18T13:25:40;10.45;;;2.25;;
71048;SDS011;58704;53.358;-6.238;2022-11-18T13:31:00;7.20;;;1.45;;
71048;SDS011;58704;53.358;-6.238;2022-11-18T13:33:37;5.97;;;1.60;;
71048;SDS011;58704;53.358;-6.238;2022-11-18T13:36:13;9.53;;;2.13;;
71048;SDS011;58704;53.358;-6.238;2022-11-18T13:38:40;10.50;;;1.90;;
71048;SDS011;58704;53.358;-6.238;2022-11-18T13:41:19;10.00;;;2.00;;
71048;SDS011;58704;53.358;-6.238;2022-11-18T13:43:48;10.60;;;2.40;;
71048;SDS011;58704;53.358;-6.238;2022-11-18T13:46:14;8.32;;;3.17;;
71048;SDS011;58704;53.358;-6.238;2022-11-18T13:48:47;13.70;;;2.50;;
71048;SDS011;58704;53.358;-6.238;2022-11-18T13:51:19;8.07;;;2.40;;
71048;SDS011;58704;53.358;-6.238;2022-11-18T13:53:46;16.30;;;2.97;;
71048;SDS011;58704;53.358;-6.238;2022-11-18T13:56:16;7.13;;;1.80;;
71048;SDS011;58704;53.358;-6.238;2022-11-18T13:58:54;5.53;;;1.70;;
71048;SDS011;58704;53.358;-6.238;2022-11-18T14:01:25;10.43;;;1.77;;
71048;SDS011;58704;53.358;-6.238;2022-11-18T14:03:53;18.65;;;2.60;;
71048;SDS011;58704;53.358;-6.238;2022-11-18T14:06:25;6.43;;;1.77;;
71048;SDS011;58704;53.358;-6.238;2022-11-18T14:08:50;10.52;;;2.03;;
71048;SDS011;58704;53.358;-6.238;2022-11-18T14:14:28;8.57;;;1.80;;
71048;SDS011;58704;53.358;-6.238;2022-11-18T14:17:02;6.80;;;1.42;;
71048;SDS011;58704;53.358;-6.238;2022-11-18T14:19:29;8.85;;;1.85;;
71048;SDS011;58704;53.358;-6.238;2022-11-18T14:22:03;4.95;;;1.42;;
71048;SDS011;58704;53.358;-6.238;2022-11-18T14:24:29;11.40;;;1.90;;
71048;SDS011;58704;53.358;-6.238;2022-11-18T14:26:54;11.90;;;2.10;;
71048;SDS011;58704;53.358;-6.238;2022-11-18T14:29:20;3.60;;;1.53;;
71048;SDS011;58704;53.358;-6.238;2022-11-18T14:32:10;4.93;;;1.58;;
71048;SDS011;58704;53.358;-6.238;2022-11-18T14:34:37;6.15;;;2.15;;
71048;SDS011;58704;53.358;-6.238;2022-11-18T14:37:12;8.80;;;1.80;;
71048;SDS011;58704;53.358;-6.238;2022-11-18T14:39:39;7.95;;;2.53;;
71048;SDS011;58704;53.358;-6.238;2022-11-18T14:42:08;8.73;;;1.77;;
71048;SDS011;58704;53.358;-6.238;2022-11-18T14:44:35;7.10;;;1.80;;
71048;SDS011;58704;53.358;-6.238;2022-11-18T14:47:02;8.10;;;2.53;;
71048;SDS011;58704;53.358;-6.238;2022-11-18T14:49:30;9.07;;;2.63;;
71048;SDS011;58704;53.358;-6.238;2022-11-18T14:51:57;9.57;;;3.07;;
71048;SDS011;58704;53.358;-6.238;2022-11-18T14:54:23;12.43;;;2.63;;
71048;SDS011;58704;53.358;-6.238;2022-11-18T14:56:49;8.75;;;1.77;;
71048;SDS011;58704;53.358;-6.238;2022-11-18T14:59:16;3.00;;;1.77;;
71048;SDS011;58704;53.358;-6.238;2022-11-18T15:01:43;7.90;;;2.00;;
71048;SDS011;58704;53.358;-6.238;2022-11-18T15:04:09;5.47;;;1.90;;
71048;SDS011;58704;53.358;-6.238;2022-11-18T15:06:35;7.95;;;1.85;;
71048;SDS011;58704;53.358;-6.238;2022-11-18T15:09:01;6.35;;;1.75;;
71048;SDS011;58704;53.358;-6.238;2022-11-18T15:11:27;4.80;;;1.50;;
71048;SDS011;58704;53.358;-6.238;2022-11-18T15:13:53;6.50;;;1.70;;
71048;SDS011;58704;53.358;-6.238;2022-11-18T15:16:25;4.80;;;1.80;;
71048;SDS011;58704;53.358;-6.238;2022-11-18T15:18:53;7.35;;;2.50;;
71048;SDS011;58704;53.358;-6.238;2022-11-18T15:21:22;8.07;;;1.80;;
71048;SDS011;58704;53.358;-6.238;2022-11-18T15:23:49;7.20;;;2.05;;
71048;SDS011;58704;53.358;-6.238;2022-11-18T15:26:28;8.60;;;1.67;;
71048;SDS011;58704;53.358;-6.238;2022-11-18T15:28:57;9.05;;;2.75;;
71048;SDS011;58704;53.358;-6.238;2022-11-18T15:31:23;7.37;;;2.00;;
71048;SDS011;58704;53.358;-6.238;2022-11-18T15:33:49;7.55;;;3.17;;
71048;SDS011;58704;53.358;-6.238;2022-11-18T15:36:27;8.43;;;2.25;;
71048;SDS011;58704;53.358;-6.238;2022-11-18T15:38:58;6.72;;;2.22;;
71048;SDS011;58704;53.358;-6.238;2022-11-18T15:41:24;7.73;;;2.50;;
71048;SDS011;58704;53.358;-6.238;2022-11-18T15:43:51;10.57;;;2.50;;
71048;SDS011;58704;53.358;-6.238;2022-11-18T15:46:19;9.80;;;2.30;;
71048;SDS011;58704;53.358;-6.238;2022-11-18T15:48:49;8.40;;;3.22;;
71048;SDS011;58704;53.358;-6.238;2022-11-18T15:51:15;8.27;;;3.30;;
71048;SDS011;58704;53.358;-6.238;2022-11-18T15:53:40;13.20;;;6.83;;
71048;SDS011;58704;53.358;-6.238;2022-11-18T15:56:39;14.90;;;6.68;;
71048;SDS011;58704;53.358;-6.238;2022-11-18T15:59:07;12.93;;;4.50;;
71048;SDS011;58704;53.358;-6.238;2022-11-18T16:01:36;9.27;;;3.38;;
71048;SDS011;58704;53.358;-6.238;2022-11-18T16:04:03;6.13;;;3.00;;
71048;SDS011;58704;53.358;-6.238;2022-11-18T16:06:29;7.90;;;2.75;;
71048;SDS011;58704;53.358;-6.238;2022-11-18T16:08:55;9.18;;;3.30;;
71048;SDS011;58704;53.358;-6.238;2022-11-18T16:11:21;6.83;;;2.83;;
71048;SDS011;58704;53.358;-6.238;2022-11-18T16:14:06;9.25;;;3.45;;
71048;SDS011;58704;53.358;-6.238;2022-11-18T16:16:33;13.00;;;5.65;;
71048;SDS011;58704;53.358;-6.238;2022-11-18T16:19:00;11.97;;;5.80;;
71048;SDS011;58704;53.358;-6.238;2022-11-18T16:21:28;9.10;;;3.40;;
71048;SDS011;58704;53.358;-6.238;2022-11-18T16:24:06;12.63;;;6.47;;
71048;SDS011;58704;53.358;-6.238;2022-11-18T16:26:43;16.75;;;8.20;;
71048;SDS011;58704;53.358;-6.238;2022-11-18T16:29:12;15.57;;;6.65;;
71048;SDS011;58704;53.358;-6.238;2022-11-18T16:31:39;19.80;;;8.97;;
71048;SDS011;58704;53.358;-6.238;2022-11-18T16:34:15;12.45;;;5.35;;
71048;SDS011;58704;53.358;-6.238;2022-11-18T16:36:48;13.80;;;6.00;;
71048;SDS011;58704;53.358;-6.238;2022-11-18T16:39:16;15.63;;;7.03;;
71048;SDS011;58704;53.358;-6.238;2022-11-18T16:41:49;12.30;;;5.65;;
71048;SDS011;58704;53.358;-6.238;2022-11-18T16:44:15;13.80;;;4.90;;
71048;SDS011;58704;53.358;-6.238;2022-11-18T16:46:43;19.67;;;7.82;;
71048;SDS011;58704;53.358;-6.238;2022-11-18T16:49:12;33.30;;;12.93;;
71048;SDS011;58704;53.358;-6.238;2022-11-18T16:51:42;20.52;;;9.00;;
71048;SDS011;58704;53.358;-6.238;2022-11-18T16:56:43;13.07;;;4.70;;
71048;SDS011;58704;53.358;-6.238;2022-11-18T16:59:11;12.93;;;4.78;;
71048;SDS011;58704;53.358;-6.238;2022-11-18T17:01:38;9.15;;;3.42;;
71048;SDS011;58704;53.358;-6.238;2022-11-18T17:04:14;13.10;;;4.07;;
71048;SDS011;58704;53.358;-6.238;2022-11-18T17:06:44;15.30;;;3.35;;
71048;SDS011;58704;53.358;-6.238;2022-11-18T17:09:26;12.33;;;4.00;;
71048;SDS011;58704;53.358;-6.238;2022-11-18T17:11:54;16.02;;;7.47;;
71048;SDS011;58704;53.358;-6.238;2022-11-18T17:14:22;11.15;;;5.18;;
71048;SDS011;58704;53.358;-6.238;2022-11-18T17:16:49;9.35;;;5.10;;
71048;SDS011;58704;53.358;-6.238;2022-11-18T17:19:16;17.10;;;8.30;;
71048;SDS011;58704;53.358;-6.238;2022-11-18T17:21:43;15.33;;;5.47;;
71048;SDS011;58704;53.358;-6.238;2022-11-18T17:24:09;12.35;;;4.80;;
71048;SDS011;58704;53.358;-6.238;2022-11-18T17:26:37;9.52;;;5.50;;
71048;SDS011;58704;53.358;-6.238;2022-11-18T17:29:04;15.32;;;5.10;;
71048;SDS011;58704;53.358;-6.238;2022-11-18T17:31:29;18.63;;;6.23;;
71048;SDS011;58704;53.358;-6.238;2022-11-18T17:33:55;13.37;;;4.80;;
71048;SDS011;58704;53.358;-6.238;2022-11-18T17:36:21;19.25;;;5.93;;
71048;SDS011;58704;53.358;-6.238;2022-11-18T17:38:49;12.18;;;6.28;;
71048;SDS011;58704;53.358;-6.238;2022-11-18T17:41:20;18.33;;;6.82;;
71048;SDS011;58704;53.358;-6.238;2022-11-18T17:44:06;14.37;;;6.23;;
71048;SDS011;58704;53.358;-6.238;2022-11-18T17:46:33;16.35;;;6.68;;
71048;SDS011;58704;53.358;-6.238;2022-11-18T17:49:00;18.40;;;8.02;;
71048;SDS011;58704;53.358;-6.238;2022-11-18T17:51:27;17.10;;;7.38;;
71048;SDS011;58704;53.358;-6.238;2022-11-18T17:53:53;18.80;;;8.73;;
71048;SDS011;58704;53.358;-6.238;2022-11-18T17:56:19;21.67;;;8.37;;
71048;SDS011;58704;53.358;-6.238;2022-11-18T17:58:45;16.67;;;8.20;;
71048;SDS011;58704;53.358;-6.238;2022-11-18T18:01:12;22.13;;;7.50;;
71048;SDS011;58704;53.358;-6.238;2022-11-18T18:03:38;17.23;;;7.95;;
71048;SDS011;58704;53.358;-6.238;2022-11-18T18:06:04;16.17;;;7.77;;
71048;SDS011;58704;53.358;-6.238;2022-11-18T18:08:31;14.75;;;7.15;;
71048;SDS011;58704;53.358;-6.238;2022-11-18T18:11:00;18.75;;;7.40;;
71048;SDS011;58704;53.358;-6.238;2022-11-18T18:13:29;24.65;;;10.48;;
71048;SDS011;58704;53.358;-6.238;2022-11-18T18:16:13;13.87;;;7.70;;
71048;SDS011;58704;53.358;-6.238;2022-11-18T18:18:43;16.80;;;6.68;;
71048;SDS011;58704;53.358;-6.238;2022-11-18T18:21:08;14.95;;;8.10;;
71048;SDS011;58704;53.358;-6.238;2022-11-18T18:23:34;17.92;;;6.93;;
71048;SDS011;58704;53.358;-6.238;2022-11-18T18:26:01;19.13;;;8.17;;
71048;SDS011;58704;53.358;-6.238;2022-11-18T18:28:27;16.17;;;6.90;;